sensor_id;sensor_type;location;lat;lon;timestamp;P1;durP1;ratioP1;P2;durP2;ratioP2
28266;SDS011;15525;45.568;5.448;2023-04-15T00:01:21;5.05;;;2.90;;
28266;SDS011;15525;45.568;5.448;2023-04-15T00:03:49;4.30;;;2.47;;
28266;SDS011;15525;45.568;5.448;2023-04-15T00:06:19;2.72;;;2.03;;
28266;SDS011;15525;45.568;5.448;2023-04-15T00:08:45;3.45;;;2.20;;
28266;SDS011;15525;45.568;5.448;2023-04-15T00:11:11;4.45;;;2.53;;
28266;SDS011;15525;45.568;5.448;2023-04-15T00:13:37;4.85;;;2.85;;
28266;SDS011;15525;45.568;5.448;2023-04-15T00:16:03;4.82;;;2.95;;
28266;SDS011;15525;45.568;5.448;2023-04-15T00:18:30;4.03;;;2.90;;
28266;SDS011;15525;45.568;5.448;2023-04-15T00:20:56;5.22;;;2.50;;
28266;SDS011;15525;45.568;5.448;2023-04-15T00:23:21;4.25;;;2.40;;
28266;SDS011;15525;45.568;5.448;2023-04-15T00:25:47;5.70;;;2.70;;
28266;SDS011;15525;45.568;5.448;2023-04-15T00:28:13;4.38;;;2.90;;
28266;SDS011;15525;45.568;5.448;2023-04-15T00:30:38;2.75;;;2.25;;
28266;SDS011;15525;45.568;5.448;2023-04-15T00:33:03;4.95;;;2.33;;
28266;SDS011;15525;45.568;5.448;2023-04-15T00:35:29;3.30;;;2.58;;
28266;SDS011;15525;45.568;5.448;2023-04-15T00:37:58;5.07;;;3.28;;
28266;SDS011;15525;45.568;5.448;2023-04-15T00:40:24;5.00;;;3.58;;
28266;SDS011;15525;45.568;5.448;2023-04-15T00:42:50;3.72;;;2.72;;
28266;SDS011;15525;45.568;5.448;2023-04-15T00:45:16;5.53;;;3.63;;
28266;SDS011;15525;45.568;5.448;2023-04-15T00:47:42;5.95;;;3.13;;
28266;SDS011;15525;45.568;5.448;2023-04-15T00:50:08;6.75;;;3.15;;
28266;SDS011;15525;45.568;5.448;2023-04-15T00:52:34;6.68;;;3.00;;
28266;SDS011;15525;45.568;5.448;2023-04-15T00:55:00;5.60;;;2.80;;
28266;SDS011;15525;45.568;5.448;2023-04-15T00:57:26;5.63;;;2.97;;
28266;SDS011;15525;45.568;5.448;2023-04-15T00:59:53;5.35;;;2.90;;
28266;SDS011;15525;45.568;5.448;2023-04-15T01:02:20;3.83;;;2.63;;
28266;SDS011;15525;45.568;5.448;2023-04-15T01:04:46;4.65;;;2.60;;
28266;SDS011;15525;45.568;5.448;2023-04-15T01:07:12;3.47;;;2.45;;
28266;SDS011;15525;45.568;5.448;2023-04-15T01:09:38;6.05;;;2.72;;
28266;SDS011;15525;45.568;5.448;2023-04-15T01:12:06;4.10;;;2.58;;
28266;SDS011;15525;45.568;5.448;2023-04-15T01:14:34;4.68;;;2.70;;
28266;SDS011;15525;45.568;5.448;2023-04-15T01:17:00;4.40;;;2.70;;
28266;SDS011;15525;45.568;5.448;2023-04-15T01:19:26;3.30;;;2.70;;
28266;SDS011;15525;45.568;5.448;2023-04-15T01:21:52;3.47;;;2.35;;
28266;SDS011;15525;45.568;5.448;2023-04-15T01:24:18;4.05;;;2.58;;
28266;SDS011;15525;45.568;5.448;2023-04-15T01:26:44;4.07;;;2.70;;
28266;SDS011;15525;45.568;5.448;2023-04-15T01:29:10;4.80;;;2.63;;
28266;SDS011;15525;45.568;5.448;2023-04-15T01:31:36;4.93;;;2.85;;
28266;SDS011;15525;45.568;5.448;2023-04-15T01:34:01;4.35;;;2.40;;
28266;SDS011;15525;45.568;5.448;2023-04-15T01:36:27;4.28;;;2.63;;
28266;SDS011;15525;45.568;5.448;2023-04-15T01:38:52;5.15;;;2.60;;
28266;SDS011;15525;45.568;5.448;2023-04-15T01:41:26;5.63;;;2.88;;
28266;SDS011;15525;45.568;5.448;2023-04-15T01:43:52;4.90;;;2.72;;
28266;SDS011;15525;45.568;5.448;2023-04-15T01:46:17;4.03;;;2.80;;
28266;SDS011;15525;45.568;5.448;2023-04-15T01:48:43;6.22;;;3.40;;
28266;SDS011;15525;45.568;5.448;2023-04-15T01:51:08;3.85;;;3.00;;
28266;SDS011;15525;45.568;5.448;2023-04-15T01:53:34;4.65;;;2.83;;
28266;SDS011;15525;45.568;5.448;2023-04-15T01:55:59;3.45;;;2.55;;
28266;SDS011;15525;45.568;5.448;2023-04-15T01:58:25;3.63;;;2.72;;
28266;SDS011;15525;45.568;5.448;2023-04-15T02:00:51;5.45;;;2.92;;
28266;SDS011;15525;45.568;5.448;2023-04-15T02:03:16;5.90;;;2.95;;
28266;SDS011;15525;45.568;5.448;2023-04-15T02:05:42;5.63;;;2.92;;
28266;SDS011;15525;45.568;5.448;2023-04-15T02:08:07;4.95;;;3.38;;
28266;SDS011;15525;45.568;5.448;2023-04-15T02:10:33;5.60;;;3.13;;
28266;SDS011;15525;45.568;5.448;2023-04-15T02:12:59;3.53;;;2.47;;
28266;SDS011;15525;45.568;5.448;2023-04-15T02:15:25;4.63;;;2.58;;
28266;SDS011;15525;45.568;5.448;2023-04-15T02:17:50;4.93;;;2.90;;
28266;SDS011;15525;45.568;5.448;2023-04-15T02:20:19;4.57;;;2.97;;
28266;SDS011;15525;45.568;5.448;2023-04-15T02:22:45;3.90;;;2.70;;
28266;SDS011;15525;45.568;5.448;2023-04-15T02:25:12;4.03;;;3.00;;
28266;SDS011;15525;45.568;5.448;2023-04-15T02:27:38;5.22;;;2.75;;
28266;SDS011;15525;45.568;5.448;2023-04-15T02:30:03;4.85;;;2.58;;
28266;SDS011;15525;45.568;5.448;2023-04-15T02:32:29;4.18;;;2.67;;
28266;SDS011;15525;45.568;5.448;2023-04-15T02:34:55;3.40;;;2.70;;
28266;SDS011;15525;45.568;5.448;2023-04-15T02:37:20;5.78;;;2.33;;
28266;SDS011;15525;45.568;5.448;2023-04-15T02:39:47;4.63;;;2.38;;
28266;SDS011;15525;45.568;5.448;2023-04-15T02:42:12;3.85;;;2.50;;
28266;SDS011;15525;45.568;5.448;2023-04-15T02:44:38;5.65;;;2.95;;
28266;SDS011;15525;45.568;5.448;2023-04-15T02:47:03;4.68;;;2.60;;
28266;SDS011;15525;45.568;5.448;2023-04-15T02:49:31;3.53;;;2.30;;
28266;SDS011;15525;45.568;5.448;2023-04-15T02:51:56;5.50;;;2.95;;
28266;SDS011;15525;45.568;5.448;2023-04-15T02:54:22;3.13;;;2.17;;
28266;SDS011;15525;45.568;5.448;2023-04-15T02:56:50;2.80;;;2.17;;
28266;SDS011;15525;45.568;5.448;2023-04-15T02:59:19;3.10;;;1.88;;
28266;SDS011;15525;45.568;5.448;2023-04-15T03:01:44;1.95;;;1.73;;
28266;SDS011;15525;45.568;5.448;2023-04-15T03:04:10;3.03;;;1.80;;
28266;SDS011;15525;45.568;5.448;2023-04-15T03:06:35;3.97;;;2.05;;
28266;SDS011;15525;45.568;5.448;2023-04-15T03:09:01;2.83;;;2.13;;
28266;SDS011;15525;45.568;5.448;2023-04-15T03:11:27;3.53;;;2.20;;
28266;SDS011;15525;45.568;5.448;2023-04-15T03:13:53;3.13;;;2.15;;
28266;SDS011;15525;45.568;5.448;2023-04-15T03:16:19;4.22;;;2.55;;
28266;SDS011;15525;45.568;5.448;2023-04-15T03:18:45;4.60;;;2.63;;
28266;SDS011;15525;45.568;5.448;2023-04-15T03:21:10;3.45;;;2.22;;
28266;SDS011;15525;45.568;5.448;2023-04-15T03:23:35;3.45;;;2.17;;
28266;SDS011;15525;45.568;5.448;2023-04-15T03:26:01;3.10;;;2.10;;
28266;SDS011;15525;45.568;5.448;2023-04-15T03:28:27;2.58;;;2.10;;
28266;SDS011;15525;45.568;5.448;2023-04-15T03:30:53;3.95;;;2.22;;
28266;SDS011;15525;45.568;5.448;2023-04-15T03:33:19;2.53;;;2.00;;
28266;SDS011;15525;45.568;5.448;2023-04-15T03:35:44;2.67;;;2.00;;
28266;SDS011;15525;45.568;5.448;2023-04-15T03:38:10;3.70;;;2.45;;
28266;SDS011;15525;45.568;5.448;2023-04-15T03:40:35;3.97;;;2.03;;
28266;SDS011;15525;45.568;5.448;2023-04-15T03:43:00;3.40;;;1.98;;
28266;SDS011;15525;45.568;5.448;2023-04-15T03:45:26;2.63;;;1.73;;
28266;SDS011;15525;45.568;5.448;2023-04-15T03:47:51;2.25;;;1.73;;
28266;SDS011;15525;45.568;5.448;2023-04-15T03:50:17;3.97;;;2.15;;
28266;SDS011;15525;45.568;5.448;2023-04-15T03:52:43;3.08;;;1.80;;
28266;SDS011;15525;45.568;5.448;2023-04-15T03:55:09;2.65;;;1.95;;
28266;SDS011;15525;45.568;5.448;2023-04-15T03:57:35;2.20;;;1.80;;
28266;SDS011;15525;45.568;5.448;2023-04-15T04:00:06;2.83;;;1.90;;
28266;SDS011;15525;45.568;5.448;2023-04-15T04:02:33;4.22;;;1.90;;
28266;SDS011;15525;45.568;5.448;2023-04-15T04:04:58;2.97;;;1.77;;
28266;SDS011;15525;45.568;5.448;2023-04-15T04:07:24;2.83;;;1.90;;
28266;SDS011;15525;45.568;5.448;2023-04-15T04:09:49;3.17;;;1.75;;
28266;SDS011;15525;45.568;5.448;2023-04-15T04:12:15;2.47;;;1.70;;
28266;SDS011;15525;45.568;5.448;2023-04-15T04:14:41;3.40;;;1.90;;
28266;SDS011;15525;45.568;5.448;2023-04-15T04:17:06;4.50;;;2.20;;
28266;SDS011;15525;45.568;5.448;2023-04-15T04:19:32;2.10;;;1.75;;
28266;SDS011;15525;45.568;5.448;2023-04-15T04:21:58;3.60;;;1.90;;
28266;SDS011;15525;45.568;5.448;2023-04-15T04:24:23;3.67;;;2.22;;
28266;SDS011;15525;45.568;5.448;2023-04-15T04:26:49;3.63;;;1.98;;
28266;SDS011;15525;45.568;5.448;2023-04-15T04:29:14;3.60;;;2.15;;
28266;SDS011;15525;45.568;5.448;2023-04-15T04:31:40;4.28;;;2.28;;
28266;SDS011;15525;45.568;5.448;2023-04-15T04:34:05;3.70;;;2.33;;
28266;SDS011;15525;45.568;5.448;2023-04-15T04:36:31;4.95;;;2.28;;
28266;SDS011;15525;45.568;5.448;2023-04-15T04:38:56;3.47;;;2.08;;
28266;SDS011;15525;45.568;5.448;2023-04-15T04:41:21;5.13;;;2.10;;
28266;SDS011;15525;45.568;5.448;2023-04-15T04:43:47;3.25;;;2.28;;
28266;SDS011;15525;45.568;5.448;2023-04-15T04:46:13;5.70;;;2.25;;
28266;SDS011;15525;45.568;5.448;2023-04-15T04:48:38;6.35;;;2.30;;
28266;SDS011;15525;45.568;5.448;2023-04-15T04:51:03;4.80;;;2.33;;
28266;SDS011;15525;45.568;5.448;2023-04-15T04:53:29;4.35;;;2.45;;
28266;SDS011;15525;45.568;5.448;2023-04-15T04:55:55;5.38;;;2.55;;
28266;SDS011;15525;45.568;5.448;2023-04-15T04:58:20;5.63;;;3.10;;
28266;SDS011;15525;45.568;5.448;2023-04-15T05:00:45;6.60;;;3.15;;
28266;SDS011;15525;45.568;5.448;2023-04-15T05:03:11;6.50;;;3.10;;
28266;SDS011;15525;45.568;5.448;2023-04-15T05:05:36;6.32;;;3.05;;
28266;SDS011;15525;45.568;5.448;2023-04-15T05:08:05;4.63;;;3.13;;
28266;SDS011;15525;45.568;5.448;2023-04-15T05:10:31;4.88;;;2.95;;
28266;SDS011;15525;45.568;5.448;2023-04-15T05:12:56;4.38;;;2.90;;
28266;SDS011;15525;45.568;5.448;2023-04-15T05:15:22;5.10;;;3.45;;
28266;SDS011;15525;45.568;5.448;2023-04-15T05:17:47;4.47;;;2.80;;
28266;SDS011;15525;45.568;5.448;2023-04-15T05:20:13;6.78;;;3.63;;
28266;SDS011;15525;45.568;5.448;2023-04-15T05:22:38;4.35;;;3.30;;
28266;SDS011;15525;45.568;5.448;2023-04-15T05:25:04;5.90;;;3.17;;
28266;SDS011;15525;45.568;5.448;2023-04-15T05:27:29;8.55;;;3.65;;
28266;SDS011;15525;45.568;5.448;2023-04-15T05:29:55;6.75;;;2.80;;
28266;SDS011;15525;45.568;5.448;2023-04-15T05:32:20;4.63;;;2.88;;
28266;SDS011;15525;45.568;5.448;2023-04-15T05:34:46;4.35;;;2.60;;
28266;SDS011;15525;45.568;5.448;2023-04-15T05:37:11;6.38;;;2.72;;
28266;SDS011;15525;45.568;5.448;2023-04-15T05:39:38;5.35;;;2.67;;
28266;SDS011;15525;45.568;5.448;2023-04-15T05:42:03;5.63;;;2.70;;
28266;SDS011;15525;45.568;5.448;2023-04-15T05:44:29;6.30;;;3.05;;
28266;SDS011;15525;45.568;5.448;2023-04-15T05:46:55;4.93;;;2.40;;
28266;SDS011;15525;45.568;5.448;2023-04-15T05:49:21;5.80;;;2.72;;
28266;SDS011;15525;45.568;5.448;2023-04-15T05:51:47;4.90;;;2.47;;
28266;SDS011;15525;45.568;5.448;2023-04-15T05:54:12;7.25;;;2.20;;
28266;SDS011;15525;45.568;5.448;2023-04-15T05:56:37;4.05;;;2.30;;
28266;SDS011;15525;45.568;5.448;2023-04-15T05:59:03;2.50;;;1.98;;
28266;SDS011;15525;45.568;5.448;2023-04-15T06:01:28;5.90;;;2.35;;
28266;SDS011;15525;45.568;5.448;2023-04-15T06:03:54;4.88;;;1.83;;
28266;SDS011;15525;45.568;5.448;2023-04-15T06:06:20;3.95;;;1.90;;
28266;SDS011;15525;45.568;5.448;2023-04-15T06:08:45;4.80;;;2.10;;
28266;SDS011;15525;45.568;5.448;2023-04-15T06:11:11;4.20;;;2.28;;
28266;SDS011;15525;45.568;5.448;2023-04-15T06:13:36;3.00;;;1.92;;
28266;SDS011;15525;45.568;5.448;2023-04-15T06:16:02;3.33;;;1.75;;
28266;SDS011;15525;45.568;5.448;2023-04-15T06:18:28;5.30;;;1.80;;
28266;SDS011;15525;45.568;5.448;2023-04-15T06:20:53;4.53;;;1.60;;
28266;SDS011;15525;45.568;5.448;2023-04-15T06:23:19;4.43;;;1.70;;
28266;SDS011;15525;45.568;5.448;2023-04-15T06:25:45;3.17;;;2.03;;
28266;SDS011;15525;45.568;5.448;2023-04-15T06:28:10;4.28;;;2.00;;
28266;SDS011;15525;45.568;5.448;2023-04-15T06:30:36;4.22;;;2.30;;
28266;SDS011;15525;45.568;5.448;2023-04-15T06:33:02;4.70;;;1.80;;
28266;SDS011;15525;45.568;5.448;2023-04-15T06:35:29;2.83;;;2.17;;
28266;SDS011;15525;45.568;5.448;2023-04-15T06:37:55;2.60;;;1.95;;
28266;SDS011;15525;45.568;5.448;2023-04-15T06:40:20;3.53;;;1.70;;
28266;SDS011;15525;45.568;5.448;2023-04-15T06:42:46;2.40;;;1.50;;
28266;SDS011;15525;45.568;5.448;2023-04-15T06:45:11;2.17;;;1.50;;
28266;SDS011;15525;45.568;5.448;2023-04-15T06:47:37;2.13;;;1.60;;
28266;SDS011;15525;45.568;5.448;2023-04-15T06:50:02;3.13;;;1.58;;
28266;SDS011;15525;45.568;5.448;2023-04-15T06:52:28;2.40;;;1.60;;
28266;SDS011;15525;45.568;5.448;2023-04-15T06:54:53;4.35;;;2.20;;
28266;SDS011;15525;45.568;5.448;2023-04-15T06:57:19;2.35;;;1.50;;
28266;SDS011;15525;45.568;5.448;2023-04-15T06:59:44;3.78;;;1.70;;
28266;SDS011;15525;45.568;5.448;2023-04-15T07:02:11;5.85;;;2.38;;
28266;SDS011;15525;45.568;5.448;2023-04-15T07:04:38;3.80;;;2.13;;
28266;SDS011;15525;45.568;5.448;2023-04-15T07:07:04;3.20;;;2.03;;
28266;SDS011;15525;45.568;5.448;2023-04-15T07:09:30;3.35;;;2.00;;
28266;SDS011;15525;45.568;5.448;2023-04-15T07:11:56;3.05;;;1.92;;
28266;SDS011;15525;45.568;5.448;2023-04-15T07:14:21;3.03;;;1.95;;
28266;SDS011;15525;45.568;5.448;2023-04-15T07:16:47;4.35;;;2.20;;
28266;SDS011;15525;45.568;5.448;2023-04-15T07:19:12;4.47;;;2.20;;
28266;SDS011;15525;45.568;5.448;2023-04-15T07:21:38;3.42;;;1.65;;
28266;SDS011;15525;45.568;5.448;2023-04-15T07:24:03;3.70;;;1.75;;
28266;SDS011;15525;45.568;5.448;2023-04-15T07:26:29;2.28;;;1.50;;
28266;SDS011;15525;45.568;5.448;2023-04-15T07:28:54;3.47;;;1.50;;
28266;SDS011;15525;45.568;5.448;2023-04-15T07:31:20;2.58;;;1.52;;
28266;SDS011;15525;45.568;5.448;2023-04-15T07:33:46;3.22;;;1.45;;
28266;SDS011;15525;45.568;5.448;2023-04-15T07:36:11;2.55;;;1.48;;
28266;SDS011;15525;45.568;5.448;2023-04-15T07:38:37;4.00;;;1.52;;
28266;SDS011;15525;45.568;5.448;2023-04-15T07:41:03;3.63;;;1.45;;
28266;SDS011;15525;45.568;5.448;2023-04-15T07:43:28;3.55;;;1.50;;
28266;SDS011;15525;45.568;5.448;2023-04-15T07:45:54;5.45;;;1.88;;
28266;SDS011;15525;45.568;5.448;2023-04-15T07:48:19;3.85;;;2.75;;
28266;SDS011;15525;45.568;5.448;2023-04-15T07:50:45;2.25;;;1.52;;
28266;SDS011;15525;45.568;5.448;2023-04-15T07:53:10;2.83;;;1.90;;
28266;SDS011;15525;45.568;5.448;2023-04-15T07:55:36;3.42;;;1.77;;
28266;SDS011;15525;45.568;5.448;2023-04-15T07:58:01;2.35;;;1.42;;
28266;SDS011;15525;45.568;5.448;2023-04-15T08:00:27;2.22;;;1.60;;
28266;SDS011;15525;45.568;5.448;2023-04-15T08:02:52;1.20;;;0.98;;
28266;SDS011;15525;45.568;5.448;2023-04-15T08:05:18;1.35;;;1.10;;
28266;SDS011;15525;45.568;5.448;2023-04-15T08:07:44;2.58;;;1.20;;
28266;SDS011;15525;45.568;5.448;2023-04-15T08:10:10;1.58;;;0.90;;
28266;SDS011;15525;45.568;5.448;2023-04-15T08:12:36;1.52;;;1.00;;
28266;SDS011;15525;45.568;5.448;2023-04-15T08:15:01;1.65;;;1.08;;
28266;SDS011;15525;45.568;5.448;2023-04-15T08:17:27;1.58;;;0.80;;
28266;SDS011;15525;45.568;5.448;2023-04-15T08:19:52;1.40;;;0.98;;
28266;SDS011;15525;45.568;5.448;2023-04-15T08:22:18;2.78;;;0.90;;
28266;SDS011;15525;45.568;5.448;2023-04-15T08:24:43;1.52;;;0.90;;
28266;SDS011;15525;45.568;5.448;2023-04-15T08:27:09;2.35;;;1.10;;
28266;SDS011;15525;45.568;5.448;2023-04-15T08:29:34;1.30;;;0.95;;
28266;SDS011;15525;45.568;5.448;2023-04-15T08:32:00;1.90;;;0.90;;
28266;SDS011;15525;45.568;5.448;2023-04-15T08:34:26;1.00;;;0.80;;
28266;SDS011;15525;45.568;5.448;2023-04-15T08:36:52;1.77;;;0.90;;
28266;SDS011;15525;45.568;5.448;2023-04-15T08:39:17;1.63;;;1.00;;
28266;SDS011;15525;45.568;5.448;2023-04-15T08:41:46;2.40;;;1.10;;
28266;SDS011;15525;45.568;5.448;2023-04-15T08:44:15;2.42;;;1.20;;
28266;SDS011;15525;45.568;5.448;2023-04-15T08:46:42;3.55;;;0.95;;
28266;SDS011;15525;45.568;5.448;2023-04-15T08:49:12;1.15;;;0.98;;
28266;SDS011;15525;45.568;5.448;2023-04-15T08:51:40;1.45;;;1.00;;
28266;SDS011;15525;45.568;5.448;2023-04-15T08:54:07;0.95;;;0.80;;
28266;SDS011;15525;45.568;5.448;2023-04-15T08:56:33;1.52;;;1.10;;
28266;SDS011;15525;45.568;5.448;2023-04-15T08:59:00;1.48;;;1.00;;
28266;SDS011;15525;45.568;5.448;2023-04-15T09:01:26;2.95;;;1.20;;
28266;SDS011;15525;45.568;5.448;2023-04-15T09:03:52;1.30;;;1.17;;
28266;SDS011;15525;45.568;5.448;2023-04-15T09:06:20;15.48;;;2.47;;
28266;SDS011;15525;45.568;5.448;2023-04-15T09:08:48;2.38;;;1.20;;
28266;SDS011;15525;45.568;5.448;2023-04-15T09:11:15;12.73;;;3.22;;
28266;SDS011;15525;45.568;5.448;2023-04-15T09:13:44;8.07;;;1.45;;
28266;SDS011;15525;45.568;5.448;2023-04-15T09:16:10;5.38;;;1.52;;
28266;SDS011;15525;45.568;5.448;2023-04-15T09:18:37;2.85;;;1.33;;
28266;SDS011;15525;45.568;5.448;2023-04-15T09:21:03;1.90;;;1.10;;
28266;SDS011;15525;45.568;5.448;2023-04-15T09:23:32;0.85;;;0.85;;
28266;SDS011;15525;45.568;5.448;2023-04-15T09:25:59;1.00;;;0.90;;
28266;SDS011;15525;45.568;5.448;2023-04-15T09:28:25;2.00;;;1.08;;
28266;SDS011;15525;45.568;5.448;2023-04-15T09:30:51;1.75;;;1.00;;
28266;SDS011;15525;45.568;5.448;2023-04-15T09:33:20;2.10;;;1.15;;
28266;SDS011;15525;45.568;5.448;2023-04-15T09:36:02;1.80;;;1.10;;
28266;SDS011;15525;45.568;5.448;2023-04-15T09:38:29;3.83;;;1.10;;
28266;SDS011;15525;45.568;5.448;2023-04-15T09:40:55;1.52;;;1.20;;
28266;SDS011;15525;45.568;5.448;2023-04-15T09:43:21;3.28;;;1.27;;
28266;SDS011;15525;45.568;5.448;2023-04-15T09:45:48;1.83;;;1.23;;
28266;SDS011;15525;45.568;5.448;2023-04-15T09:48:22;3.15;;;1.20;;
28266;SDS011;15525;45.568;5.448;2023-04-15T09:50:51;5.50;;;1.43;;
28266;SDS011;15525;45.568;5.448;2023-04-15T09:53:21;3.70;;;1.50;;
28266;SDS011;15525;45.568;5.448;2023-04-15T09:58:25;2.83;;;1.53;;
28266;SDS011;15525;45.568;5.448;2023-04-15T10:00:52;2.28;;;1.58;;
28266;SDS011;15525;45.568;5.448;2023-04-15T10:05:50;2.03;;;1.55;;
28266;SDS011;15525;45.568;5.448;2023-04-15T10:08:20;4.35;;;1.60;;
28266;SDS011;15525;45.568;5.448;2023-04-15T10:10:48;3.30;;;1.90;;
28266;SDS011;15525;45.568;5.448;2023-04-15T10:13:15;6.78;;;2.00;;
28266;SDS011;15525;45.568;5.448;2023-04-15T10:18:31;1.55;;;1.33;;
28266;SDS011;15525;45.568;5.448;2023-04-15T10:21:00;3.22;;;1.52;;
28266;SDS011;15525;45.568;5.448;2023-04-15T10:23:25;1.55;;;1.17;;
28266;SDS011;15525;45.568;5.448;2023-04-15T10:25:52;2.05;;;1.20;;
28266;SDS011;15525;45.568;5.448;2023-04-15T10:28:21;2.20;;;1.30;;
28266;SDS011;15525;45.568;5.448;2023-04-15T10:30:47;2.50;;;1.05;;
28266;SDS011;15525;45.568;5.448;2023-04-15T10:33:14;1.58;;;1.10;;
28266;SDS011;15525;45.568;5.448;2023-04-15T10:35:45;2.45;;;1.00;;
28266;SDS011;15525;45.568;5.448;2023-04-15T10:41:22;1.73;;;1.30;;
28266;SDS011;15525;45.568;5.448;2023-04-15T10:46:39;2.35;;;1.42;;
28266;SDS011;15525;45.568;5.448;2023-04-15T10:49:08;1.30;;;1.15;;
28266;SDS011;15525;45.568;5.448;2023-04-15T10:51:44;4.93;;;1.00;;
28266;SDS011;15525;45.568;5.448;2023-04-15T10:54:14;3.13;;;1.00;;
28266;SDS011;15525;45.568;5.448;2023-04-15T10:59:36;2.83;;;1.08;;
28266;SDS011;15525;45.568;5.448;2023-04-15T11:07:35;1.30;;;1.20;;
28266;SDS011;15525;45.568;5.448;2023-04-15T11:12:42;1.60;;;1.20;;
28266;SDS011;15525;45.568;5.448;2023-04-15T11:15:34;3.45;;;2.00;;
28266;SDS011;15525;45.568;5.448;2023-04-15T11:18:19;1.63;;;1.35;;
28266;SDS011;15525;45.568;5.448;2023-04-15T11:20:52;2.17;;;1.60;;
28266;SDS011;15525;45.568;5.448;2023-04-15T11:23:54;2.55;;;1.40;;
28266;SDS011;15525;45.568;5.448;2023-04-15T11:26:13;2.67;;;1.45;;
28266;SDS011;15525;45.568;5.448;2023-04-15T11:28:40;3.05;;;1.38;;
28266;SDS011;15525;45.568;5.448;2023-04-15T11:31:15;3.67;;;1.45;;
28266;SDS011;15525;45.568;5.448;2023-04-15T11:36:17;2.03;;;1.35;;
28266;SDS011;15525;45.568;5.448;2023-04-15T11:38:43;1.35;;;1.20;;
28266;SDS011;15525;45.568;5.448;2023-04-15T11:41:11;2.72;;;1.58;;
28266;SDS011;15525;45.568;5.448;2023-04-15T11:43:36;2.22;;;1.50;;
28266;SDS011;15525;45.568;5.448;2023-04-15T11:46:02;2.40;;;1.40;;
28266;SDS011;15525;45.568;5.448;2023-04-15T11:48:28;2.72;;;1.50;;
28266;SDS011;15525;45.568;5.448;2023-04-15T11:50:57;3.15;;;1.42;;
28266;SDS011;15525;45.568;5.448;2023-04-15T11:53:24;4.88;;;1.35;;
28266;SDS011;15525;45.568;5.448;2023-04-15T11:55:59;1.60;;;1.20;;
28266;SDS011;15525;45.568;5.448;2023-04-15T11:58:25;1.30;;;1.20;;
28266;SDS011;15525;45.568;5.448;2023-04-15T12:00:57;1.15;;;1.00;;
28266;SDS011;15525;45.568;5.448;2023-04-15T12:03:28;2.08;;;1.00;;
28266;SDS011;15525;45.568;5.448;2023-04-15T12:06:18;1.35;;;0.90;;
28266;SDS011;15525;45.568;5.448;2023-04-15T12:08:57;1.92;;;1.25;;
28266;SDS011;15525;45.568;5.448;2023-04-15T12:13:57;2.20;;;1.30;;
28266;SDS011;15525;45.568;5.448;2023-04-15T12:16:27;1.38;;;0.98;;
28266;SDS011;15525;45.568;5.448;2023-04-15T12:18:54;1.15;;;0.80;;
28266;SDS011;15525;45.568;5.448;2023-04-15T12:21:21;1.55;;;1.00;;
28266;SDS011;15525;45.568;5.448;2023-04-15T12:23:48;3.78;;;1.00;;
28266;SDS011;15525;45.568;5.448;2023-04-15T12:26:32;2.00;;;1.17;;
28266;SDS011;15525;45.568;5.448;2023-04-15T12:29:03;1.48;;;1.10;;
28266;SDS011;15525;45.568;5.448;2023-04-15T12:31:30;1.15;;;1.00;;
28266;SDS011;15525;45.568;5.448;2023-04-15T12:33:57;1.42;;;0.90;;
28266;SDS011;15525;45.568;5.448;2023-04-15T12:36:24;1.77;;;0.90;;
28266;SDS011;15525;45.568;5.448;2023-04-15T12:38:50;1.00;;;0.90;;
28266;SDS011;15525;45.568;5.448;2023-04-15T12:41:16;1.10;;;0.90;;
28266;SDS011;15525;45.568;5.448;2023-04-15T12:43:44;1.80;;;1.15;;
28266;SDS011;15525;45.568;5.448;2023-04-15T12:46:11;1.70;;;1.10;;
28266;SDS011;15525;45.568;5.448;2023-04-15T12:48:37;1.08;;;0.95;;
28266;SDS011;15525;45.568;5.448;2023-04-15T12:51:02;1.10;;;0.90;;
28266;SDS011;15525;45.568;5.448;2023-04-15T12:53:27;1.73;;;0.80;;
28266;SDS011;15525;45.568;5.448;2023-04-15T12:55:53;0.75;;;0.70;;
28266;SDS011;15525;45.568;5.448;2023-04-15T12:58:18;2.53;;;0.73;;
28266;SDS011;15525;45.568;5.448;2023-04-15T13:00:45;0.70;;;0.70;;
28266;SDS011;15525;45.568;5.448;2023-04-15T13:03:11;0.80;;;0.70;;
28266;SDS011;15525;45.568;5.448;2023-04-15T13:05:37;1.77;;;0.85;;
28266;SDS011;15525;45.568;5.448;2023-04-15T13:08:04;2.95;;;1.00;;
28266;SDS011;15525;45.568;5.448;2023-04-15T13:10:29;1.10;;;1.00;;
28266;SDS011;15525;45.568;5.448;2023-04-15T13:12:55;0.85;;;0.70;;
28266;SDS011;15525;45.568;5.448;2023-04-15T13:15:21;0.70;;;0.70;;
28266;SDS011;15525;45.568;5.448;2023-04-15T13:17:47;1.05;;;0.80;;
28266;SDS011;15525;45.568;5.448;2023-04-15T13:20:13;1.05;;;0.90;;
28266;SDS011;15525;45.568;5.448;2023-04-15T13:22:39;2.35;;;0.90;;
28266;SDS011;15525;45.568;5.448;2023-04-15T13:25:05;2.40;;;1.08;;
28266;SDS011;15525;45.568;5.448;2023-04-15T13:27:32;1.73;;;1.20;;
28266;SDS011;15525;45.568;5.448;2023-04-15T13:29:57;0.80;;;0.80;;
28266;SDS011;15525;45.568;5.448;2023-04-15T13:32:23;0.85;;;0.85;;
28266;SDS011;15525;45.568;5.448;2023-04-15T13:34:49;1.05;;;0.90;;
28266;SDS011;15525;45.568;5.448;2023-04-15T13:37:15;1.10;;;1.00;;
28266;SDS011;15525;45.568;5.448;2023-04-15T13:39:40;0.95;;;0.82;;
28266;SDS011;15525;45.568;5.448;2023-04-15T13:42:06;1.90;;;0.85;;
28266;SDS011;15525;45.568;5.448;2023-04-15T13:44:32;0.75;;;0.75;;
28266;SDS011;15525;45.568;5.448;2023-04-15T13:46:57;3.13;;;1.17;;
28266;SDS011;15525;45.568;5.448;2023-04-15T13:49:23;1.10;;;0.80;;
28266;SDS011;15525;45.568;5.448;2023-04-15T13:51:49;1.15;;;1.05;;
28266;SDS011;15525;45.568;5.448;2023-04-15T13:54:15;1.35;;;0.93;;
28266;SDS011;15525;45.568;5.448;2023-04-15T13:56:40;2.10;;;1.13;;
28266;SDS011;15525;45.568;5.448;2023-04-15T13:59:05;1.13;;;1.00;;
28266;SDS011;15525;45.568;5.448;2023-04-15T14:01:33;1.40;;;1.00;;
28266;SDS011;15525;45.568;5.448;2023-04-15T14:03:59;1.55;;;1.10;;
28266;SDS011;15525;45.568;5.448;2023-04-15T14:06:24;1.38;;;1.10;;
28266;SDS011;15525;45.568;5.448;2023-04-15T14:08:51;1.10;;;1.00;;
28266;SDS011;15525;45.568;5.448;2023-04-15T14:11:19;1.52;;;1.17;;
28266;SDS011;15525;45.568;5.448;2023-04-15T14:13:45;1.55;;;1.05;;
28266;SDS011;15525;45.568;5.448;2023-04-15T14:16:10;1.98;;;1.20;;
28266;SDS011;15525;45.568;5.448;2023-04-15T14:18:36;2.28;;;1.00;;
28266;SDS011;15525;45.568;5.448;2023-04-15T14:21:01;2.05;;;1.02;;
28266;SDS011;15525;45.568;5.448;2023-04-15T14:23:27;2.15;;;1.33;;
28266;SDS011;15525;45.568;5.448;2023-04-15T14:25:53;2.58;;;1.30;;
28266;SDS011;15525;45.568;5.448;2023-04-15T14:28:18;1.60;;;1.30;;
28266;SDS011;15525;45.568;5.448;2023-04-15T14:30:44;2.90;;;1.35;;
28266;SDS011;15525;45.568;5.448;2023-04-15T14:33:10;3.47;;;1.30;;
28266;SDS011;15525;45.568;5.448;2023-04-15T14:35:35;2.22;;;1.30;;
28266;SDS011;15525;45.568;5.448;2023-04-15T14:38:00;2.50;;;1.60;;
28266;SDS011;15525;45.568;5.448;2023-04-15T14:40:26;4.10;;;1.70;;
28266;SDS011;15525;45.568;5.448;2023-04-15T14:42:51;2.42;;;1.52;;
28266;SDS011;15525;45.568;5.448;2023-04-15T14:45:17;2.75;;;1.42;;
28266;SDS011;15525;45.568;5.448;2023-04-15T14:47:42;2.25;;;1.42;;
28266;SDS011;15525;45.568;5.448;2023-04-15T14:50:08;2.50;;;1.67;;
28266;SDS011;15525;45.568;5.448;2023-04-15T14:52:34;2.03;;;1.80;;
28266;SDS011;15525;45.568;5.448;2023-04-15T14:55:06;3.92;;;1.70;;
28266;SDS011;15525;45.568;5.448;2023-04-15T14:57:34;2.45;;;2.03;;
28266;SDS011;15525;45.568;5.448;2023-04-15T15:00:00;3.53;;;1.98;;
28266;SDS011;15525;45.568;5.448;2023-04-15T15:02:25;2.03;;;1.58;;
28266;SDS011;15525;45.568;5.448;2023-04-15T15:04:50;2.63;;;1.80;;
28266;SDS011;15525;45.568;5.448;2023-04-15T15:07:16;2.13;;;1.58;;
28266;SDS011;15525;45.568;5.448;2023-04-15T15:09:41;2.50;;;1.95;;
28266;SDS011;15525;45.568;5.448;2023-04-15T15:12:07;2.13;;;1.60;;
28266;SDS011;15525;45.568;5.448;2023-04-15T15:14:32;2.78;;;1.90;;